Time;durP1;ratioP1;P1;durP2;ratioP2;P2;SDS_P1;SDS_P2;PMS_P1;PMS_P2;Temp;Humidity;BMP_temperature;BMP_pressure;BME280_temperature;BME280_humidity;BME280_pressure;Samples;Min_cycle;Max_cycle;Signal;HPM_P1;HPM_P2
2021/11/21 00:00:31;;;;;;;32.77;23.67;;;;;;;5.55;99.22;100616.58;1459556;88;21574;-85
2021/11/21 00:02:58;;;;;;;33.97;22.97;;;;;;;5.52;99.06;100609.77;1462683;89;21499;-85
2021/11/21 00:05:25;;;;;;;26.17;20.67;;;;;;;5.48;99.11;100610.95;1442780;89;21464;-85
2021/11/21 00:07:51;;;;;;;29.20;21.43;;;;;;;5.48;99.03;100607.01;1443241;88;21493;-83
2021/11/21 00:10:17;;;;;;;29.03;20.80;;;;;;;5.50;98.84;100605.12;1427014;91;21576;-85
2021/11/21 00:12:43;;;;;;;33.60;22.87;;;;;;;5.53;98.81;100605.38;1423115;91;21489;-85
2021/11/21 00:15:10;;;;;;;30.33;23.57;;;;;;;5.52;98.72;100603.20;1452347;90;21507;-85
2021/11/21 00:17:37;;;;;;;34.47;23.43;;;;;;;5.49;98.60;100605.22;1462288;89;22919;-85
2021/11/21 00:20:05;;;;;;;30.07;21.73;;;;;;;5.48;98.60;100599.61;1438638;90;21493;-85
2021/11/21 00:22:35;;;;;;;28.27;22.40;;;;;;;5.45;98.91;100606.40;1454647;89;21485;-86
2021/11/21 00:24:59;;;;;;;30.93;22.43;;;;;;;5.41;98.75;100605.31;1436441;91;21659;-85
2021/11/21 00:27:25;;;;;;;31.10;24.47;;;;;;;5.38;98.56;100604.22;1414274;91;21629;-85
2021/11/21 00:29:53;;;;;;;29.30;20.90;;;;;;;5.34;98.80;100593.55;1449779;88;21427;-84
2021/11/21 00:32:20;;;;;;;33.83;23.47;;;;;;;5.30;98.35;100593.42;1456770;88;21442;-84
2021/11/21 00:34:48;;;;;;;40.83;23.40;;;;;;;5.26;98.45;100592.42;1465062;87;21405;-85
2021/11/21 00:37:15;;;;;;;29.67;22.23;;;;;;;5.22;98.63;100585.73;1468240;87;21612;-84
2021/11/21 00:39:41;;;;;;;27.43;21.13;;;;;;;5.16;98.75;100589.63;1474877;88;21441;-84
2021/11/21 00:42:08;;;;;;;30.93;21.67;;;;;;;5.13;98.86;100589.85;1473271;88;21434;-84
2021/11/21 00:44:34;;;;;;;31.80;22.80;;;;;;;5.11;98.70;100595.67;1467791;87;22344;-84
2021/11/21 00:47:00;;;;;;;30.37;23.80;;;;;;;5.09;98.58;100594.93;1477753;87;21530;-84
2021/11/21 00:49:27;;;;;;;33.33;22.57;;;;;;;5.05;98.89;100593.00;1440111;90;21486;-85
2021/11/21 00:51:53;;;;;;;27.27;20.37;;;;;;;5.02;98.67;100597.16;1448827;90;21434;-84
2021/11/21 00:54:27;;;;;;;25.63;20.43;;;;;;;5.00;98.93;100592.96;1450180;89;21457;-84
2021/11/21 00:56:51;;;;;;;31.82;21.37;;;;;;;5.01;98.77;100592.87;1453886;89;21658;-83
2021/11/21 00:59:20;;;;;;;27.93;21.30;;;;;;;5.05;98.83;100585.61;1453751;89;21613;-84
2021/11/21 01:01:49;;;;;;;26.47;20.63;;;;;;;5.07;98.81;100588.98;1462843;89;21619;-84
2021/11/21 01:04:17;;;;;;;31.63;22.83;;;;;;;5.07;98.92;100585.04;1450717;89;22425;-86
2021/11/21 01:06:45;;;;;;;28.13;20.30;;;;;;;5.10;98.93;100582.20;1448738;89;22509;-86
2021/11/21 01:09:12;;;;;;;31.20;21.90;;;;;;;5.11;98.88;100573.38;1459939;89;22565;-86
2021/11/21 01:11:39;;;;;;;26.67;19.53;;;;;;;5.14;98.74;100573.98;1454289;88;21354;-86
2021/11/21 01:14:07;;;;;;;27.63;18.60;;;;;;;5.17;98.61;100569.00;1448762;89;21485;-86
2021/11/21 01:16:35;;;;;;;28.10;21.30;;;;;;;5.20;98.75;100564.36;1451639;89;21486;-86
2021/11/21 01:19:01;;;;;;;29.03;20.57;;;;;;;5.25;98.47;100565.35;1442583;89;21486;-86
2021/11/21 01:21:29;;;;;;;26.23;19.77;;;;;;;5.27;98.36;100563.47;1456766;89;22440;-86
2021/11/21 01:23:56;;;;;;;33.90;21.07;;;;;;;5.28;98.36;100561.20;1454158;89;22713;-85
2021/11/21 01:26:22;;;;;;;31.57;21.87;;;;;;;5.29;98.15;100556.30;1450033;90;21455;-86
2021/11/21 01:28:48;;;;;;;26.40;20.13;;;;;;;5.30;98.06;100552.75;1459479;89;21435;-86
2021/11/21 01:31:15;;;;;;;23.70;17.07;;;;;;;5.33;97.98;100552.52;1419526;91;21436;-86
2021/11/21 01:33:41;;;;;;;24.20;18.03;;;;;;;5.35;97.88;100549.32;1427805;91;21497;-86
2021/11/21 01:36:07;;;;;;;25.03;18.47;;;;;;;5.41;97.77;100553.30;1443681;89;22313;-85
2021/11/21 01:38:35;;;;;;;24.17;17.43;;;;;;;5.46;97.67;100541.95;1431180;89;22515;-86
2021/11/21 01:41:04;;;;;;;28.63;19.67;;;;;;;5.47;97.50;100536.23;1450257;89;21537;-86
2021/11/21 01:43:30;;;;;;;24.23;18.27;;;;;;;5.46;97.32;100535.87;1453013;88;21471;-85
2021/11/21 01:45:56;;;;;;;24.97;18.27;;;;;;;5.43;97.45;100534.31;1447997;89;21390;-86
2021/11/21 01:48:23;;;;;;;24.47;18.63;;;;;;;5.45;97.43;100526.34;1454237;88;22262;-86
2021/11/21 01:50:50;;;;;;;22.37;17.07;;;;;;;5.49;97.32;100526.45;1474145;88;21530;-86
2021/11/21 01:53:16;;;;;;;25.87;17.83;;;;;;;5.52;97.19;100522.30;1470403;87;21412;-85
2021/11/21 01:55:47;;;;;;;26.93;18.40;;;;;;;5.55;97.18;100522.06;1474380;87;22366;-86
2021/11/21 01:58:14;;;;;;;27.60;20.02;;;;;;;5.56;97.05;100514.58;1468951;87;21457;-86
2021/11/21 02:00:44;;;;;;;27.43;18.67;;;;;;;5.56;96.95;100515.89;1472540;88;21515;-86
2021/11/21 02:03:10;;;;;;;25.43;18.32;;;;;;;5.55;97.11;100506.31;1476379;88;21523;-85
2021/11/21 02:05:37;;;;;;;24.67;16.50;;;;;;;5.56;96.94;100501.45;1467458;87;21478;-86
2021/11/21 02:08:04;;;;;;;24.70;17.33;;;;;;;5.61;97.05;100501.47;1476171;88;22393;-86
2021/11/21 02:10:34;;;;;;;22.53;15.40;;;;;;;5.64;96.86;100493.36;1475062;88;21493;-86
2021/11/21 02:13:01;;;;;;;22.73;16.73;;;;;;;5.70;96.82;100493.83;1479549;87;21596;-86
2021/11/21 02:15:28;;;;;;;22.83;17.83;;;;;;;5.72;96.63;100489.31;1478114;87;21411;-86
2021/11/21 02:17:55;;;;;;;21.00;15.97;;;;;;;5.74;96.64;100488.73;1465819;88;21641;-86
2021/11/21 02:20:36;;;;;;;20.97;16.37;;;;;;;5.75;96.49;100478.58;1476139;87;21545;-86
2021/11/21 02:23:06;;;;;;;22.65;16.07;;;;;;;5.75;96.40;100479.89;1458596;88;21397;-86
2021/11/21 02:25:33;;;;;;;18.07;14.67;;;;;;;5.74;96.30;100483.00;1471757;88;21588;-86
2021/11/21 02:27:59;;;;;;;19.43;15.10;;;;;;;5.76;96.25;100465.34;1468179;87;21441;-86
2021/11/21 02:30:26;;;;;;;22.67;16.00;;;;;;;5.80;96.21;100464.14;1473043;87;21537;-86
2021/11/21 02:32:53;;;;;;;21.27;16.30;;;;;;;5.82;96.14;100467.50;1473206;88;21516;-86
2021/11/21 02:35:22;;;;;;;24.77;16.33;;;;;;;5.83;96.11;100466.54;1471744;87;22381;-86
2021/11/21 02:37:50;;;;;;;22.03;16.27;;;;;;;5.81;96.14;100459.27;1476715;87;22351;-86
2021/11/21 02:40:18;;;;;;;20.03;15.03;;;;;;;5.82;96.13;100451.74;1472385;87;22343;-86
2021/11/21 02:42:44;;;;;;;21.63;14.47;;;;;;;5.82;96.16;100462.25;1475965;87;21464;-86
2021/11/21 02:45:15;;;;;;;20.83;15.63;;;;;;;5.86;96.05;100452.34;1476704;88;21471;-86
2021/11/21 02:47:41;;;;;;;17.70;13.90;;;;;;;5.92;96.00;100456.29;1466505;88;21527;-86
2021/11/21 02:50:13;;;;;;;23.53;14.73;;;;;;;5.93;96.08;100447.45;1474271;87;22448;-86
2021/11/21 02:52:39;;;;;;;20.00;15.07;;;;;;;5.96;95.93;100440.70;1468078;88;22455;-86
2021/11/21 02:55:07;;;;;;;20.60;15.70;;;;;;;5.95;95.83;100437.22;1469160;87;21663;-86
2021/11/21 02:57:33;;;;;;;20.10;14.63;;;;;;;5.96;95.84;100438.91;1473844;87;21553;-86
2021/11/21 03:00:01;;;;;;;20.50;14.37;;;;;;;5.96;95.81;100436.77;1476234;88;22366;-85
2021/11/21 03:02:28;;;;;;;18.63;13.97;;;;;;;5.96;95.78;100431.51;1470944;87;22321;-85
2021/11/21 03:04:56;;;;;;;18.43;13.90;;;;;;;5.96;95.95;100426.25;1460900;88;21618;-86
2021/11/21 03:07:23;;;;;;;19.00;14.03;;;;;;;5.97;95.94;100426.13;1471270;88;21428;-86
2021/11/21 03:09:52;;;;;;;19.47;15.17;;;;;;;5.94;96.29;100423.73;1471865;87;22374;-86
2021/11/21 03:12:21;;;;;;;18.20;15.13;;;;;;;5.96;96.12;100421.00;1463884;87;21434;-86
2021/11/21 03:14:48;;;;;;;20.73;16.07;;;;;;;5.98;96.30;100423.01;1470034;87;22321;-86
2021/11/21 03:17:15;;;;;;;21.13;14.77;;;;;;;5.97;96.39;100417.41;1466233;88;21493;-86
2021/11/21 03:19:42;;;;;;;21.10;15.97;;;;;;;6.01;96.34;100418.83;1473130;87;21699;-87
2021/11/21 03:22:09;;;;;;;21.43;15.67;;;;;;;6.01;96.56;100419.70;1472004;87;21522;-85
2021/11/21 03:24:35;;;;;;;20.17;14.43;;;;;;;6.03;96.43;100420.88;1478686;87;22240;-85
2021/11/21 03:27:02;;;;;;;24.20;15.63;;;;;;;6.03;96.51;100415.14;1476152;88;21457;-86
2021/11/21 03:29:29;;;;;;;20.20;16.03;;;;;;;6.03;96.65;100416.93;1475181;87;21427;-86
2021/11/21 03:31:55;;;;;;;22.27;15.67;;;;;;;6.05;96.44;100413.23;1473119;87;22380;-86
2021/11/21 03:34:21;;;;;;;21.77;17.23;;;;;;;6.08;96.38;100405.59;1474104;88;22009;-86
2021/11/21 03:36:47;;;;;;;22.20;17.17;;;;;;;6.10;96.55;100406.32;1475893;87;21501;-85
2021/11/21 03:39:14;;;;;;;21.20;17.07;;;;;;;6.12;96.52;100400.45;1479823;88;21398;-85
2021/11/21 03:41:41;;;;;;;25.10;18.37;;;;;;;6.10;96.66;100401.89;1470143;87;21566;-85
2021/11/21 03:44:08;;;;;;;22.40;16.13;;;;;;;6.11;96.37;100402.73;1473329;88;22306;-86
2021/11/21 03:46:37;;;;;;;19.23;15.20;;;;;;;6.10;96.49;100401.89;1480950;87;21515;-85
2021/11/21 03:49:06;;;;;;;24.13;17.57;;;;;;;6.10;96.39;100396.64;1476076;87;22484;-86
2021/11/21 03:51:33;;;;;;;25.13;16.93;;;;;;;6.11;96.52;100388.27;1474473;87;21471;-86
2021/11/21 03:54:00;;;;;;;24.60;17.87;;;;;;;6.11;96.62;100393.53;1472998;88;21508;-86
2021/11/21 03:56:26;;;;;;;27.23;19.30;;;;;;;6.10;96.52;100383.98;1475392;88;21456;-86
2021/11/21 03:58:52;;;;;;;24.87;19.30;;;;;;;6.10;96.63;100386.61;1480157;88;21500;-87
2021/11/21 04:01:19;;;;;;;28.00;20.13;;;;;;;6.05;97.10;100374.30;1472633;88;21522;-86
2021/11/21 04:03:46;;;;;;;25.73;19.23;;;;;;;6.03;97.30;100378.84;1470552;87;21449;-86
2021/11/21 04:06:12;;;;;;;28.60;19.90;;;;;;;6.03;97.11;100377.52;1464681;87;21398;-87
2021/11/21 04:08:41;;;;;;;29.67;19.43;;;;;;;6.01;97.51;100375.48;1470706;88;21464;-86
2021/11/21 04:11:08;;;;;;;30.83;21.07;;;;;;;6.00;97.20;100368.56;1470430;87;22595;-86
2021/11/21 04:13:34;;;;;;;29.57;21.33;;;;;;;5.98;97.33;100366.53;1475490;87;21574;-86
2021/11/21 04:16:00;;;;;;;27.53;20.13;;;;;;;5.98;97.38;100371.78;1473275;88;21397;-86
2021/11/21 04:18:26;;;;;;;29.97;21.67;;;;;;;5.94;97.75;100365.11;1482055;88;21398;-86
2021/11/21 04:20:53;;;;;;;27.90;20.30;;;;;;;5.92;97.77;100365.66;1469762;88;21522;-86
2021/11/21 04:23:20;;;;;;;35.20;21.97;;;;;;;5.91;97.95;100366.63;1472700;88;21523;-86
2021/11/21 04:25:46;;;;;;;28.67;19.20;;;;;;;5.91;97.99;100358.75;1475229;87;21479;-86
2021/11/21 04:28:12;;;;;;;34.17;23.00;;;;;;;5.87;98.45;100354.22;1475435;88;21419;-86
2021/11/21 04:30:39;;;;;;;34.57;24.10;;;;;;;5.84;98.69;100349.17;1479289;88;21574;-87
2021/11/21 04:33:05;;;;;;;35.60;24.70;;;;;;;5.84;98.49;100344.78;1468764;88;21515;-87
2021/11/21 04:35:32;;;;;;;36.30;23.87;;;;;;;5.83;98.62;100348.34;1472116;88;21405;-87
2021/11/21 04:37:58;;;;;;;33.93;20.93;;;;;;;5.82;98.47;100346.69;1470652;87;21434;-87
2021/11/21 04:40:24;;;;;;;34.53;23.77;;;;;;;5.86;98.37;100350.73;1468140;88;21435;-87
2021/11/21 04:42:51;;;;;;;35.73;22.53;;;;;;;5.89;98.22;100350.97;1475281;88;22446;-88
2021/11/21 04:45:17;;;;;;;31.50;22.17;;;;;;;5.88;98.64;100347.52;1474103;87;21497;-87
2021/11/21 04:47:44;;;;;;;34.27;23.03;;;;;;;5.87;98.41;100345.03;1473410;87;21427;-86
2021/11/21 04:50:13;;;;;;;35.23;23.63;;;;;;;5.88;98.62;100346.69;1468521;88;21552;-86
2021/11/21 04:52:40;;;;;;;35.83;24.43;;;;;;;5.84;98.91;100355.73;1467426;87;21478;-86
2021/11/21 04:55:09;;;;;;;28.83;21.10;;;;;;;5.81;98.96;100348.96;1473521;87;21507;-87
2021/11/21 04:57:39;;;;;;;29.17;21.27;;;;;;;5.80;98.60;100352.52;1478455;87;22521;-87
2021/11/21 05:00:05;;;;;;;31.67;21.77;;;;;;;5.77;99.00;100350.62;1479303;87;21648;-87
2021/11/21 05:02:31;;;;;;;32.43;23.10;;;;;;;5.72;99.19;100347.02;1472373;87;21419;-86
2021/11/21 05:04:57;;;;;;;35.97;25.67;;;;;;;5.70;99.18;100355.52;1467321;87;21404;-87
2021/11/21 05:07:24;;;;;;;31.70;23.50;;;;;;;5.68;99.26;100346.91;1472492;87;21494;-87
2021/11/21 05:09:50;;;;;;;37.73;24.77;;;;;;;5.65;99.42;100353.72;1473168;87;21464;-86
2021/11/21 05:12:16;;;;;;;41.03;24.13;;;;;;;5.64;99.38;100348.11;1472109;88;21500;-86
2021/11/21 05:14:42;;;;;;;35.57;23.93;;;;;;;5.65;99.27;100345.84;1470831;88;21461;-86
2021/11/21 05:17:08;;;;;;;33.67;22.07;;;;;;;5.63;99.27;100341.17;1466241;87;22329;-86
2021/11/21 05:19:34;;;;;;;38.67;27.30;;;;;;;5.57;99.43;100340.34;1479906;87;21507;-87
2021/11/21 05:22:00;;;;;;;37.07;24.53;;;;;;;5.51;99.50;100331.62;1467570;88;22402;-87
2021/11/21 05:24:27;;;;;;;34.23;23.47;;;;;;;5.48;99.68;100335.80;1464333;88;21673;-86
2021/11/21 05:26:53;;;;;;;36.40;23.63;;;;;;;5.41;100.00;100329.70;1468104;88;21427;-87
2021/11/21 05:29:19;;;;;;;37.60;24.53;;;;;;;5.38;100.00;100329.08;1470624;88;21529;-87
2021/11/21 05:31:46;;;;;;;38.63;23.97;;;;;;;5.36;100.00;100333.14;1468297;87;21456;-87
2021/11/21 05:34:12;;;;;;;35.13;23.37;;;;;;;5.34;100.00;100336.35;1478129;88;21449;-86
2021/11/21 05:36:38;;;;;;;33.43;23.13;;;;;;;5.36;99.98;100333.62;1478957;87;21551;-87
2021/11/21 05:39:04;;;;;;;38.43;26.17;;;;;;;5.29;100.00;100325.84;1469384;87;21390;-86
2021/11/21 05:41:30;;;;;;;40.57;27.60;;;;;;;5.25;100.00;100331.81;1472211;88;21471;-87
2021/11/21 05:43:56;;;;;;;35.47;23.50;;;;;;;5.22;100.00;100337.28;1477646;87;21491;-87
2021/11/21 05:46:22;;;;;;;35.27;23.63;;;;;;;5.21;100.00;100340.88;1471138;87;21375;-87
2021/11/21 05:48:48;;;;;;;37.60;24.43;;;;;;;5.19;100.00;100337.52;1474731;88;22372;-86
2021/11/21 05:51:14;;;;;;;32.90;22.93;;;;;;;5.16;100.00;100338.58;1472947;87;21464;-87
2021/11/21 05:53:41;;;;;;;28.13;18.63;;;;;;;5.13;100.00;100333.56;1479343;88;21457;-87
2021/11/21 05:56:07;;;;;;;34.47;22.87;;;;;;;5.02;100.00;100339.26;1481785;87;21434;-87
2021/11/21 05:58:33;;;;;;;29.50;21.53;;;;;;;4.93;100.00;100332.43;1472254;87;22528;-87
2021/11/21 06:01:00;;;;;;;27.83;19.63;;;;;;;4.88;99.85;100329.30;1475426;87;21405;-86
2021/11/21 06:03:26;;;;;;;31.23;20.77;;;;;;;4.80;100.00;100330.34;1469344;87;21427;-85
2021/11/21 06:05:52;;;;;;;26.73;19.30;;;;;;;4.70;100.00;100330.67;1477512;87;21485;-86
2021/11/21 06:08:18;;;;;;;28.87;18.03;;;;;;;4.62;100.00;100331.70;1473609;88;21516;-86
2021/11/21 06:10:45;;;;;;;26.10;18.50;;;;;;;4.62;100.00;100339.08;1476061;87;22512;-86
2021/11/21 06:13:12;;;;;;;27.77;19.57;;;;;;;4.57;100.00;100335.12;1475686;87;21522;-86
2021/11/21 06:15:38;;;;;;;28.43;19.30;;;;;;;4.51;100.00;100330.67;1474600;88;21433;-86
2021/11/21 06:18:05;;;;;;;26.87;18.13;;;;;;;4.47;100.00;100329.23;1478635;88;21455;-86
2021/11/21 06:20:32;;;;;;;26.67;18.00;;;;;;;4.39;100.00;100322.88;1465803;88;21426;-86
2021/11/21 06:22:58;;;;;;;27.63;20.33;;;;;;;4.38;100.00;100315.50;1473510;88;22446;-85
2021/11/21 06:25:24;;;;;;;25.53;18.33;;;;;;;4.34;100.00;100314.02;1460606;88;21494;-85
2021/11/21 06:27:50;;;;;;;27.07;18.60;;;;;;;4.32;100.00;100313.32;1470472;88;21434;-85
2021/11/21 06:30:16;;;;;;;28.17;19.53;;;;;;;4.31;100.00;100312.94;1471646;88;21432;-86
2021/11/21 06:32:42;;;;;;;37.10;18.70;;;;;;;4.29;100.00;100317.47;1467127;88;21478;-86
2021/11/21 06:35:10;;;;;;;29.67;21.73;;;;;;;4.30;100.00;100317.83;1466852;88;22373;-87
2021/11/21 06:37:37;;;;;;;32.17;22.33;;;;;;;4.32;100.00;100326.42;1468253;87;21368;-87
2021/11/21 06:40:05;;;;;;;26.93;19.73;;;;;;;4.32;100.00;100319.88;1483152;88;21449;-87
2021/11/21 06:42:31;;;;;;;24.10;17.97;;;;;;;4.36;100.00;100329.17;1476343;88;21597;-87
2021/11/21 06:44:57;;;;;;;26.90;19.40;;;;;;;4.39;100.00;100325.02;1456529;87;21353;-87
2021/11/21 06:47:23;;;;;;;32.93;21.13;;;;;;;4.41;100.00;100323.13;1458316;88;22402;-87
2021/11/21 06:49:50;;;;;;;34.67;19.53;;;;;;;4.45;100.00;100327.19;1468464;88;21508;-86
2021/11/21 06:52:18;;;;;;;31.93;19.53;;;;;;;4.44;100.00;100326.02;1467874;88;21346;-86
2021/11/21 06:54:45;;;;;;;39.10;20.17;;;;;;;4.41;100.00;100328.37;1460894;87;21574;-86
2021/11/21 06:57:11;;;;;;;23.97;18.03;;;;;;;4.43;100.00;100329.11;1461723;88;21407;-86
2021/11/21 06:59:38;;;;;;;29.07;19.07;;;;;;;4.43;100.00;100329.11;1477273;88;21464;-85
2021/11/21 07:02:04;;;;;;;27.73;20.50;;;;;;;4.45;100.00;100329.81;1464912;87;21464;-86
2021/11/21 07:04:30;;;;;;;27.60;18.50;;;;;;;4.49;100.00;100333.08;1461117;88;21590;-86
2021/11/21 07:06:56;;;;;;;29.87;20.13;;;;;;;4.48;100.00;100337.45;1453217;89;21449;-87
2021/11/21 07:09:22;;;;;;;28.10;18.87;;;;;;;4.47;100.00;100336.27;1452232;89;22329;-89
2021/11/21 07:11:49;;;;;;;25.73;18.33;;;;;;;4.43;100.00;100329.56;1451494;89;21589;-94
2021/11/21 07:14:16;;;;;;;26.43;19.87;;;;;;;4.38;100.00;100335.63;1447340;89;21582;-91
2021/11/21 07:16:45;;;;;;;23.50;17.00;;;;;;;4.34;100.00;100339.39;1455485;88;21458;-88
2021/11/21 07:19:12;;;;;;;22.90;17.53;;;;;;;4.34;100.00;100338.09;1470687;88;21686;-91
2021/11/21 07:21:39;;;;;;;29.17;18.23;;;;;;;4.33;100.00;100336.42;1457488;88;22396;-84
2021/11/21 07:24:05;;;;;;;93.27;36.27;;;;;;;4.35;100.00;100326.20;1475146;88;21448;-84
2021/11/21 07:26:32;;;;;;;31.83;18.40;;;;;;;4.40;100.00;100335.88;1457227;87;21508;-85
2021/11/21 07:28:58;;;;;;;31.63;19.27;;;;;;;4.47;100.00;100342.82;1456685;88;21581;-85
2021/11/21 07:31:24;;;;;;;22.80;18.20;;;;;;;4.56;100.00;100344.77;1458124;87;21487;-85
2021/11/21 07:33:50;;;;;;;33.10;21.47;;;;;;;4.57;100.00;100343.81;1443664;90;22299;-85
2021/11/21 07:36:17;;;;;;;28.93;19.90;;;;;;;4.55;100.00;100342.28;1463450;89;21448;-85
2021/11/21 07:38:50;;;;;;;26.03;18.40;;;;;;;4.59;100.00;100350.27;1455876;88;21448;-85
2021/11/21 07:41:16;;;;;;;27.60;19.67;;;;;;;4.64;100.00;100348.98;1467486;88;21590;-85
2021/11/21 07:44:19;;;;;;;29.77;19.47;;;;;;;4.70;100.00;100347.70;1458020;87;22045;-84
2021/11/21 07:47:01;;;;;;;25.70;17.63;;;;;;;4.66;100.00;100341.00;1454289;88;22365;-83
2021/11/21 07:49:27;;;;;;;25.47;19.17;;;;;;;4.60;100.00;100335.72;1467542;88;21361;-89
2021/11/21 07:51:53;;;;;;;26.23;20.70;;;;;;;4.61;100.00;100338.73;1461263;88;21397;-92
2021/11/21 07:54:34;;;;;;;31.40;19.17;;;;;;;4.57;100.00;100336.43;1458642;88;22240;-88
2021/11/21 07:57:01;;;;;;;33.60;22.43;;;;;;;4.56;100.00;100329.05;1470969;88;22586;-92
2021/11/21 07:59:27;;;;;;;31.30;21.23;;;;;;;4.53;100.00;100339.27;1453466;88;21353;-93
2021/11/21 08:01:54;;;;;;;35.50;20.10;;;;;;;4.51;100.00;100333.30;1473181;88;21427;-95
2021/11/21 08:04:20;;;;;;;30.27;20.43;;;;;;;4.49;100.00;100337.00;1460649;88;21339;-93
2021/11/21 08:06:46;;;;;;;27.03;18.07;;;;;;;4.44;100.00;100333.39;1474598;87;21501;-93
2021/11/21 08:09:12;;;;;;;23.77;16.40;;;;;;;4.38;100.00;100333.84;1464272;88;21559;-91
2021/11/21 08:11:39;;;;;;;25.23;19.63;;;;;;;4.37;100.00;100334.77;1471195;87;21507;-92
2021/11/21 08:14:05;;;;;;;28.50;20.13;;;;;;;4.44;100.00;100333.39;1481106;87;21478;-93
2021/11/21 08:16:31;;;;;;;33.80;20.80;;;;;;;4.50;100.00;100334.73;1479514;88;21442;-92
2021/11/21 08:18:57;;;;;;;34.33;21.37;;;;;;;4.57;100.00;100335.12;1468354;88;21440;-94
2021/11/21 08:21:23;;;;;;;28.33;20.20;;;;;;;4.58;100.00;100331.57;1454691;88;22314;-93
2021/11/21 08:23:49;;;;;;;31.37;21.33;;;;;;;4.62;100.00;100336.94;1473102;87;21485;-93
2021/11/21 08:26:15;;;;;;;28.50;19.80;;;;;;;4.66;100.00;100331.38;1463212;87;21389;-92
2021/11/21 08:28:47;;;;;;;30.97;21.20;;;;;;;4.67;100.00;100331.72;1461161;88;21420;-92
2021/11/21 08:31:13;;;;;;;32.17;21.33;;;;;;;4.70;100.00;100337.22;1457571;88;21558;-92
2021/11/21 08:33:39;;;;;;;30.70;22.43;;;;;;;4.72;100.00;100337.48;1465551;87;21549;-92
2021/11/21 08:36:06;;;;;;;32.87;23.50;;;;;;;4.73;100.00;100332.58;1453812;88;21413;-93
2021/11/21 08:38:44;;;;;;;28.07;20.83;;;;;;;4.73;100.00;100334.38;1457888;88;22219;-92
2021/11/21 08:41:10;;;;;;;41.20;27.13;;;;;;;4.75;100.00;100338.56;1413035;91;21356;-94
2021/11/21 08:43:36;;;;;;;34.37;22.13;;;;;;;4.81;100.00;100338.59;1461975;88;21441;-92
2021/11/21 08:46:03;;;;;;;36.03;23.93;;;;;;;4.84;100.00;100338.36;1463124;89;22843;-93
2021/11/21 08:48:29;;;;;;;32.57;24.00;;;;;;;4.84;100.00;100338.36;1454496;89;21406;-93
2021/11/21 08:50:56;;;;;;;33.03;22.00;;;;;;;4.85;100.00;100342.64;1450477;89;22329;-95
2021/11/21 08:53:23;;;;;;;35.40;22.80;;;;;;;4.89;100.00;100340.17;1464410;88;21485;-92
2021/11/21 08:55:49;;;;;;;29.20;18.33;;;;;;;4.93;100.00;100342.92;1474149;88;21472;-87
2021/11/21 08:58:16;;;;;;;29.20;20.13;;;;;;;4.92;100.00;100341.26;1479211;88;21456;-94
2021/11/21 09:00:42;;;;;;;31.97;21.30;;;;;;;4.91;100.00;100340.88;1481491;88;21478;-93
2021/11/21 09:03:08;;;;;;;33.47;21.57;;;;;;;4.90;100.00;100343.62;1471372;88;21361;-94
2021/11/21 09:05:34;;;;;;;32.17;20.43;;;;;;;4.92;100.00;100346.50;1474028;88;21331;-94
2021/11/21 09:08:01;;;;;;;41.63;25.47;;;;;;;4.89;100.00;100336.69;1430690;89;21541;-95
2021/11/21 09:10:27;;;;;;;44.93;27.43;;;;;;;4.89;100.00;100335.37;1469540;89;21458;-94
2021/11/21 09:12:53;;;;;;;35.73;22.97;;;;;;;4.91;100.00;100336.11;1473800;88;22545;-94
2021/11/21 09:15:21;;;;;;;34.20;23.17;;;;;;;4.92;100.00;100336.02;1425406;91;21512;-93
2021/11/21 09:17:53;;;;;;;36.20;24.43;;;;;;;4.93;100.00;100332.91;1436323;91;22447;-94
2021/11/21 09:20:23;;;;;;;34.47;24.33;;;;;;;4.91;100.00;100325.14;1414927;90;21586;-93
2021/11/21 09:22:51;;;;;;;36.77;24.37;;;;;;;4.92;100.00;100328.14;1454338;88;21509;-92
2021/11/21 09:25:20;;;;;;;36.23;23.30;;;;;;;4.96;100.00;100321.70;1462662;88;22343;-94
2021/11/21 09:27:46;;;;;;;32.67;23.53;;;;;;;4.97;100.00;100318.13;1453293;88;21427;-94
2021/11/21 09:30:13;;;;;;;34.87;24.03;;;;;;;5.01;100.00;100317.92;1446899;88;21456;-94
2021/11/21 09:32:40;;;;;;;32.40;22.33;;;;;;;5.06;100.00;100316.59;1472262;87;21427;-94
2021/11/21 09:35:08;;;;;;;36.00;23.13;;;;;;;5.14;100.00;100319.97;1475138;87;21405;-94
2021/11/21 09:37:35;;;;;;;39.23;25.93;;;;;;;5.14;100.00;100315.55;1471615;88;21309;-94
2021/11/21 09:40:02;;;;;;;43.27;27.13;;;;;;;5.13;100.00;100318.30;1470670;88;21493;-91
2021/11/21 09:42:29;;;;;;;42.00;26.97;;;;;;;5.16;100.00;100304.47;1489560;87;21426;-95
2021/11/21 09:44:55;;;;;;;36.57;22.90;;;;;;;5.25;100.00;100297.69;1432433;85;21656;-94
2021/11/21 09:47:22;;;;;;;29.43;21.00;;;;;;;5.33;100.00;100299.75;1424670;89;21642;-93
2021/11/21 09:49:48;;;;;;;33.23;23.40;;;;;;;5.40;100.00;100291.27;1417896;90;21404;-94
2021/11/21 09:52:16;;;;;;;37.70;25.77;;;;;;;5.43;100.00;100296.28;1438122;89;21473;-94
2021/11/21 09:54:43;;;;;;;38.73;26.13;;;;;;;5.45;100.00;100290.09;1451272;87;21600;-95
2021/11/21 09:59:59;;;;;;;35.52;24.10;;;;;;;5.48;100.00;100279.36;1401715;87;21688;-92
2021/11/21 10:02:31;;;;;;;36.43;24.50;;;;;;;5.48;100.00;100275.42;1394853;87;21651;-93
2021/11/21 10:05:01;;;;;;;39.87;24.77;;;;;;;5.48;100.00;100271.48;1393754;93;23639;-91
2021/11/21 10:07:35;;;;;;;42.57;26.23;;;;;;;5.52;100.00;100266.34;1401777;89;21631;-93
2021/11/21 10:10:20;;;;;;;36.77;23.10;;;;;;;5.52;100.00;100267.65;1390742;88;22387;31
2021/11/21 10:12:48;;;;;;;37.60;24.50;;;;;;;5.54;100.00;100263.13;1382454;88;21674;-94
2021/11/21 10:15:17;;;;;;;43.40;26.43;;;;;;;5.54;100.00;100254.77;1366443;94;23724;-90
2021/11/21 10:17:50;;;;;;;40.03;24.80;;;;;;;5.57;100.00;100249.28;1397290;88;22554;-95
2021/11/21 10:20:22;;;;;;;31.55;21.90;;;;;;;5.64;100.00;100255.73;1411095;88;21673;31
2021/11/21 10:22:56;;;;;;;34.20;23.53;;;;;;;5.71;100.00;100240.33;1388774;88;23537;-90
2021/11/21 10:25:43;;;;;;;36.30;25.40;;;;;;;5.77;100.00;100240.32;1373261;95;22723;-96
2021/11/21 10:28:31;;;;;;;38.23;25.13;;;;;;;5.82;100.00;100238.17;1365782;95;22818;-95
2021/11/21 10:31:24;;;;;;;61.20;24.50;;;;;;;5.86;100.00;100233.84;1430707;92;21454;-95
2021/11/21 10:33:58;;;;;;;34.43;23.00;;;;;;;5.87;100.00;100233.39;1370899;94;22426;-92
2021/11/21 10:36:35;;;;;;;32.77;24.17;;;;;;;5.92;100.00;100227.75;1415026;92;22653;-93
2021/11/21 10:39:06;;;;;;;36.10;24.63;;;;;;;5.99;100.00;100228.98;1397607;86;21576;-94
2021/11/21 10:41:40;;;;;;;39.15;24.77;;;;;;;6.08;100.00;100222.50;1427836;91;21549;-93
2021/11/21 10:44:14;;;;;;;31.43;23.03;;;;;;;6.15;99.41;100220.69;1440337;89;21594;-95
2021/11/21 10:46:45;;;;;;;33.90;22.57;;;;;;;6.14;98.86;100219.02;1422823;91;21370;-96
2021/11/21 10:49:37;;;;;;;34.55;23.80;;;;;;;6.16;99.07;100220.58;1403626;86;25380;-92
2021/11/21 10:52:20;;;;;;;33.47;22.00;;;;;;;6.22;99.16;100212.19;1417689;86;21692;-94
2021/11/21 10:54:54;;;;;;;34.33;22.13;;;;;;;6.29;98.74;100209.89;1421439;86;23158;-95
2021/11/21 11:02:42;;;;;;;35.13;23.73;;;;;;;6.38;97.57;100197.30;1447938;86;22410;-93
2021/11/21 11:05:21;;;;;;;31.87;22.10;;;;;;;6.42;97.75;100190.02;1412332;89;21820;-94
2021/11/21 11:07:57;;;;;;;31.33;22.57;;;;;;;6.45;97.72;100187.96;1438853;89;21305;-93
2021/11/21 11:10:34;;;;;;;31.37;21.30;;;;;;;6.48;97.41;100182.93;1463844;89;21546;-95
2021/11/21 11:13:10;;;;;;;34.17;20.57;;;;;;;6.49;97.19;100181.96;1461689;89;21451;-95
2021/11/21 11:15:40;;;;;;;30.50;22.10;;;;;;;6.55;97.28;100181.45;1438995;89;21489;-94
2021/11/21 11:18:18;;;;;;;31.20;21.83;;;;;;;6.54;96.36;100184.56;1472941;89;21621;-93
2021/11/21 11:20:51;;;;;;;30.07;22.73;;;;;;;6.49;96.25;100180.64;1426089;89;21489;-93
2021/11/21 11:23:20;;;;;;;29.10;21.77;;;;;;;6.48;96.68;100181.62;1432432;89;21553;-90
2021/11/21 11:25:48;;;;;;;31.27;21.23;;;;;;;6.50;96.63;100175.73;1457721;89;21479;-89